Terminal Aerodrome Forecast
Issued by NWS

Home | Current Version | Previous Version | Text Only | Print | Product List | Glossary On
Versions: 1 2 3 4 5 6 7 8 9 10 11 12 13 14 15 16 17 18 19 20 21
000
FTAK31 PAJN 241300 AAA
TAFAJN
TAF AMD
PAJN 241358Z 2414/2512 00000KT P6SM BCFG SCT002 OVC050
      TEMPO 2414/2416 2SM BR BKN005
     FM241700 10004KT P6SM SCT005 BKN050
     FM242200 VRB03KT P6SM VCSH BKN050
     FM250400 10005KT 6SM -SHRA SCT025 OVC050=

USA.gov is the U.S. government's official web portal to all federal, state and local government web resources and services.